createdAt,value
2023-11-19T00:00:14.405Z,2.80
2023-11-19T00:01:13.304Z,2.50
2023-11-19T00:02:13.438Z,2.30
2023-11-19T00:03:13.281Z,2.50
2023-11-19T00:04:13.322Z,2.30
2023-11-19T00:05:13.832Z,3.70
2023-11-19T00:06:13.221Z,3.00
2023-11-19T00:07:13.228Z,2.10
2023-11-19T00:08:13.162Z,2.70
2023-11-19T00:09:13.179Z,2.80
2023-11-19T00:10:13.200Z,3.20
2023-11-19T00:11:13.145Z,2.00
2023-11-19T00:12:13.153Z,3.10
2023-11-19T00:13:13.162Z,3.70
2023-11-19T00:14:13.112Z,1.70
2023-11-19T00:15:13.455Z,2.40
2023-11-19T00:16:13.144Z,5.00
2023-11-19T00:17:13.114Z,2.80
2023-11-19T00:18:13.120Z,1.90
2023-11-19T00:19:13.101Z,2.80
2023-11-19T00:20:13.058Z,2.80
2023-11-19T00:21:13.050Z,2.00
2023-11-19T00:22:13.071Z,1.30
2023-11-19T00:23:13.019Z,2.30
2023-11-19T00:24:13.004Z,2.30
2023-11-19T00:25:13.038Z,2.70
2023-11-19T00:26:12.974Z,2.10
2023-11-19T00:27:12.989Z,2.50
2023-11-19T00:28:12.987Z,1.50
2023-11-19T00:29:12.960Z,1.70
2023-11-19T00:30:12.960Z,1.90
2023-11-19T00:31:12.978Z,1.70
2023-11-19T00:32:13.025Z,1.80
2023-11-19T00:33:12.924Z,2.40
2023-11-19T00:34:12.967Z,1.90
2023-11-19T00:35:12.893Z,2.60
2023-11-19T00:36:12.889Z,2.60
2023-11-19T00:37:12.907Z,2.90
2023-11-19T00:38:12.866Z,1.90
2023-11-19T00:39:12.833Z,3.50
2023-11-19T00:40:12.987Z,1.60
2023-11-19T00:41:12.834Z,2.40
2023-11-19T00:42:13.001Z,2.10
2023-11-19T00:43:12.828Z,1.70
2023-11-19T00:44:12.801Z,1.60
2023-11-19T00:45:12.800Z,2.40
2023-11-19T00:46:12.843Z,1.40
2023-11-19T00:47:12.813Z,2.50
2023-11-19T00:48:12.745Z,1.50
2023-11-19T00:49:12.847Z,1.50
2023-11-19T00:50:12.871Z,1.30
2023-11-19T00:51:12.726Z,2.00
2023-11-19T00:52:12.750Z,3.00
2023-11-19T00:53:12.721Z,2.00
2023-11-19T00:54:12.695Z,2.20
2023-11-19T00:55:12.847Z,1.40
2023-11-19T00:56:12.654Z,1.60
2023-11-19T00:57:12.673Z,1.50
2023-11-19T00:58:12.660Z,1.60
2023-11-19T00:59:12.654Z,1.90
2023-11-19T01:00:12.622Z,1.50
2023-11-19T01:01:12.602Z,1.70
2023-11-19T01:02:12.680Z,1.90
2023-11-19T01:03:12.663Z,1.80
2023-11-19T01:04:12.646Z,2.10
2023-11-19T01:05:12.564Z,2.20
2023-11-19T01:06:12.543Z,1.60
2023-11-19T01:07:12.573Z,2.60
2023-11-19T01:08:12.525Z,1.70
2023-11-19T01:09:12.510Z,1.70
2023-11-19T01:10:12.561Z,1.70
2023-11-19T01:11:12.504Z,1.50
2023-11-19T01:12:12.534Z,2.20
2023-11-19T01:13:12.544Z,1.70
2023-11-19T01:14:12.505Z,2.00
2023-11-19T01:15:12.517Z,1.20
2023-11-19T01:16:12.544Z,1.10
2023-11-19T01:17:12.462Z,1.40
2023-11-19T01:18:12.441Z,1.40
2023-11-19T01:19:17.869Z,1.40
2023-11-19T01:20:12.400Z,1.50
2023-11-19T01:21:12.387Z,4.10
2023-11-19T01:22:12.408Z,2.50
2023-11-19T01:23:12.387Z,1.90
2023-11-19T01:24:12.353Z,3.30
2023-11-19T01:25:12.420Z,1.80
2023-11-19T01:26:12.352Z,1.90
2023-11-19T01:27:12.340Z,1.50
2023-11-19T01:28:12.376Z,2.70
2023-11-19T01:29:12.300Z,2.20
2023-11-19T01:30:12.285Z,2.00
2023-11-19T01:31:12.331Z,2.10
2023-11-19T01:32:12.277Z,2.10
2023-11-19T01:33:12.268Z,2.90
2023-11-19T01:34:12.370Z,3.40
2023-11-19T01:35:12.393Z,1.70
2023-11-19T01:36:12.235Z,1.90
2023-11-19T01:37:12.270Z,1.40
2023-11-19T01:38:12.213Z,1.30
2023-11-19T01:39:12.200Z,1.60
2023-11-19T01:40:12.194Z,2.20
2023-11-19T01:41:12.165Z,1.50
2023-11-19T01:42:12.159Z,1.50
2023-11-19T01:43:12.243Z,1.00
2023-11-19T01:44:12.135Z,1.00
2023-11-19T01:45:12.143Z,0.90
2023-11-19T01:46:12.301Z,1.00
2023-11-19T01:47:12.129Z,1.30
2023-11-19T01:48:12.110Z,0.90
2023-11-19T01:49:12.106Z,1.70
2023-11-19T01:50:12.083Z,1.10
2023-11-19T01:51:12.135Z,1.10
2023-11-19T01:52:12.066Z,0.90
2023-11-19T01:53:12.072Z,2.30
2023-11-19T01:54:12.030Z,0.90
2023-11-19T01:55:12.048Z,3.00
2023-11-19T01:56:12.003Z,1.30
2023-11-19T01:57:12.021Z,1.20
2023-11-19T01:58:12.019Z,1.00
2023-11-19T01:59:12.034Z,1.40
2023-11-19T02:00:11.980Z,1.80
2023-11-19T02:01:11.989Z,0.70
2023-11-19T02:02:12.055Z,2.10
2023-11-19T02:03:12.063Z,0.90
2023-11-19T02:04:12.070Z,1.30
2023-11-19T02:05:11.989Z,2.60
2023-11-19T02:06:11.925Z,0.60
2023-11-19T02:07:11.912Z,0.80
2023-11-19T02:08:11.900Z,1.00
2023-11-19T02:09:11.863Z,1.90
2023-11-19T02:10:11.915Z,1.70
2023-11-19T02:11:11.888Z,0.80
2023-11-19T02:12:11.848Z,0.70
2023-11-19T02:13:11.933Z,2.10
2023-11-19T02:14:11.864Z,0.80
2023-11-19T02:15:11.890Z,2.20
2023-11-19T02:16:11.964Z,1.00
2023-11-19T02:17:11.782Z,1.20
2023-11-19T02:18:11.786Z,1.70
2023-11-19T02:19:11.869Z,0.70
2023-11-19T02:20:11.761Z,1.70
2023-11-19T02:21:11.787Z,1.00
2023-11-19T02:22:11.749Z,3.50
2023-11-19T02:23:11.728Z,1.40
2023-11-19T02:24:11.709Z,1.90
2023-11-19T02:25:11.762Z,1.50
2023-11-19T02:26:11.686Z,1.50
2023-11-19T02:27:11.705Z,3.30
2023-11-19T02:28:11.706Z,1.10
2023-11-19T02:29:11.647Z,1.10
2023-11-19T02:30:11.648Z,1.20
2023-11-19T02:31:11.838Z,1.30
2023-11-19T02:32:11.666Z,2.30
2023-11-19T02:33:11.636Z,0.80
2023-11-19T02:34:11.612Z,1.20
2023-11-19T02:35:11.598Z,1.30
2023-11-19T02:36:11.613Z,2.40
2023-11-19T02:37:11.579Z,1.40
2023-11-19T02:38:11.578Z,1.70
2023-11-19T02:39:11.540Z,2.70
2023-11-19T02:40:11.593Z,1.70
2023-11-19T02:41:11.526Z,1.80
2023-11-19T02:42:11.530Z,2.10
2023-11-19T02:43:11.552Z,2.30
2023-11-19T02:44:11.498Z,1.70
2023-11-19T02:45:11.473Z,1.50
2023-11-19T02:47:10.462Z,2.30
2023-11-19T02:48:11.460Z,1.60
2023-11-19T02:49:11.441Z,1.60
2023-11-19T02:50:11.453Z,2.30
2023-11-19T02:51:11.798Z,3.60
2023-11-19T02:52:11.423Z,3.50
2023-11-19T02:53:11.400Z,1.60
2023-11-19T02:54:11.373Z,2.00
2023-11-19T02:55:11.426Z,2.00
2023-11-19T02:56:11.343Z,2.80
2023-11-19T02:57:22.193Z,3.40
2023-11-19T02:58:11.354Z,2.00
2023-11-19T02:59:11.314Z,1.80
2023-11-19T03:00:11.325Z,2.30
2023-11-19T03:01:11.341Z,2.70
2023-11-19T03:02:11.360Z,2.90
2023-11-19T03:03:11.556Z,2.50
2023-11-19T03:04:11.372Z,2.10
2023-11-19T03:05:11.255Z,2.50
2023-11-19T03:06:11.260Z,2.60
2023-11-19T03:07:11.267Z,3.00
2023-11-19T03:08:23.097Z,4.80
2023-11-19T03:09:11.225Z,3.60
2023-11-19T03:10:11.206Z,3.80
2023-11-19T03:11:11.195Z,3.20
2023-11-19T03:12:11.177Z,5.60
2023-11-19T03:13:11.209Z,3.60
2023-11-19T03:14:11.169Z,3.60
2023-11-19T03:15:11.169Z,2.80
2023-11-19T03:16:11.168Z,3.40
2023-11-19T03:17:11.192Z,3.90
2023-11-19T03:18:11.134Z,3.40
2023-11-19T03:19:11.105Z,3.50
2023-11-19T03:20:11.075Z,3.90
2023-11-19T03:21:11.073Z,5.00
2023-11-19T03:22:11.062Z,4.80
2023-11-19T03:23:11.075Z,4.10
2023-11-19T03:24:11.067Z,4.10
2023-11-19T03:25:11.049Z,4.50
2023-11-19T03:26:11.022Z,4.50
2023-11-19T03:27:11.005Z,4.10
2023-11-19T03:28:11.021Z,4.00
2023-11-19T03:29:10.987Z,5.40
2023-11-19T03:30:10.973Z,3.50
2023-11-19T03:31:11.003Z,6.30
2023-11-19T03:32:10.949Z,5.30
2023-11-19T03:33:11.034Z,4.70
2023-11-19T03:34:10.965Z,3.60
2023-11-19T03:35:11.056Z,5.90
2023-11-19T03:36:10.893Z,4.40
2023-11-19T03:37:10.978Z,4.50
2023-11-19T03:38:10.920Z,4.50
2023-11-19T03:39:10.874Z,6.40
2023-11-19T03:40:10.913Z,7.40
2023-11-19T03:41:10.858Z,6.00
2023-11-19T03:42:10.863Z,5.40
2023-11-19T03:43:10.914Z,6.70
2023-11-19T03:44:10.818Z,7.30
2023-11-19T03:45:10.809Z,6.20
2023-11-19T03:46:10.832Z,7.20
2023-11-19T03:47:10.821Z,8.80
2023-11-19T03:48:10.843Z,7.20
2023-11-19T03:49:10.818Z,8.90
2023-11-19T03:50:10.746Z,8.10
2023-11-19T03:51:10.740Z,7.70
2023-11-19T03:52:20.111Z,7.30
2023-11-19T03:53:10.754Z,9.10
2023-11-19T03:54:10.704Z,8.20
2023-11-19T03:55:10.699Z,10.20
2023-11-19T03:56:10.682Z,10.60
2023-11-19T03:57:10.674Z,10.10
2023-11-19T03:58:10.751Z,8.10
2023-11-19T03:59:10.656Z,10.80
2023-11-19T04:00:10.639Z,10.60
2023-11-19T04:01:10.691Z,9.20
2023-11-19T04:02:10.636Z,8.00
2023-11-19T04:03:10.619Z,11.50
2023-11-19T04:04:10.687Z,9.30
2023-11-19T04:05:10.590Z,11.00
2023-11-19T04:06:10.568Z,11.70
2023-11-19T04:07:10.597Z,14.00
2023-11-19T04:08:10.594Z,10.70
2023-11-19T04:09:10.557Z,19.60
2023-11-19T04:10:10.609Z,14.10
2023-11-19T04:11:10.522Z,14.90
2023-11-19T04:12:10.536Z,19.60
2023-11-19T04:13:10.525Z,16.40
2023-11-19T04:14:10.518Z,15.30
2023-11-19T04:15:10.484Z,14.70
2023-11-19T04:16:10.577Z,15.00
2023-11-19T04:17:10.483Z,14.70
2023-11-19T04:18:10.464Z,15.70
2023-11-19T04:19:10.476Z,18.70
2023-11-19T04:20:10.434Z,19.00
2023-11-19T04:21:10.434Z,16.30
2023-11-19T04:22:10.423Z,17.80
2023-11-19T04:23:10.408Z,18.60
2023-11-19T04:24:10.397Z,19.00
2023-11-19T04:25:10.651Z,21.50
2023-11-19T04:26:11.144Z,21.50
2023-11-19T04:27:10.348Z,21.60
2023-11-19T04:28:10.366Z,22.70
2023-11-19T04:29:10.351Z,27.50
2023-11-19T04:30:10.321Z,25.90
2023-11-19T04:31:10.459Z,27.60
2023-11-19T04:32:10.323Z,31.40
2023-11-19T04:33:10.312Z,30.10
2023-11-19T04:34:10.360Z,38.20
2023-11-19T04:35:10.277Z,28.30
2023-11-19T04:36:10.252Z,28.30
2023-11-19T04:37:13.755Z,32.10
2023-11-19T04:38:10.234Z,40.70
2023-11-19T04:39:10.244Z,29.40
2023-11-19T04:40:10.348Z,32.40
2023-11-19T04:41:10.198Z,35.90
2023-11-19T04:42:10.194Z,40.30
2023-11-19T04:43:10.223Z,35.60
2023-11-19T04:44:10.225Z,35.00
2023-11-19T04:45:10.154Z,45.90
2023-11-19T04:46:10.219Z,55.10
2023-11-19T04:47:10.209Z,45.40
2023-11-19T04:48:10.153Z,48.80
2023-11-19T04:49:10.135Z,41.70
2023-11-19T04:50:10.101Z,50.30
2023-11-19T04:51:10.106Z,83.00
2023-11-19T04:52:10.120Z,59.20
2023-11-19T04:53:10.061Z,53.00
2023-11-19T04:54:10.067Z,44.50
2023-11-19T04:55:10.079Z,44.80
2023-11-19T04:56:10.037Z,69.30
2023-11-19T04:57:10.028Z,52.80
2023-11-19T04:58:10.031Z,71.10
2023-11-19T04:59:10.014Z,45.30
2023-11-19T05:01:09.990Z,69.70
2023-11-19T05:02:10.001Z,74.10
2023-11-19T05:03:10.037Z,57.50
2023-11-19T05:04:10.202Z,66.40
2023-11-19T05:05:10.130Z,55.30
2023-11-19T05:06:09.950Z,54.60
2023-11-19T05:07:09.944Z,41.60
2023-11-19T05:08:09.895Z,61.40
2023-11-19T05:09:09.934Z,56.30
2023-11-19T05:10:09.931Z,70.70
2023-11-19T05:11:09.872Z,55.20
2023-11-19T05:12:09.876Z,65.70
2023-11-19T05:13:09.919Z,54.30
2023-11-19T05:14:09.860Z,54.90
2023-11-19T05:15:09.863Z,55.60
2023-11-19T05:16:09.851Z,102.30
2023-11-19T05:17:09.864Z,60.50
2023-11-19T05:18:09.845Z,67.00
2023-11-19T05:19:09.824Z,53.70
2023-11-19T05:20:09.777Z,55.30
2023-11-19T05:21:09.762Z,57.90
2023-11-19T05:22:09.777Z,67.40
2023-11-19T05:23:21.332Z,88.10
2023-11-19T05:24:09.749Z,64.20
2023-11-19T05:25:09.733Z,82.50
2023-11-19T05:26:09.703Z,102.20
2023-11-19T05:27:09.705Z,53.80
2023-11-19T05:28:09.704Z,60.60
2023-11-19T05:29:09.727Z,61.30
2023-11-19T05:30:09.665Z,80.50
2023-11-19T05:31:09.765Z,68.70
2023-11-19T05:32:09.651Z,78.80
2023-11-19T05:33:09.624Z,74.70
2023-11-19T05:34:09.708Z,88.70
2023-11-19T05:35:09.627Z,93.70
2023-11-19T05:36:09.671Z,82.40
2023-11-19T05:37:09.607Z,78.30
2023-11-19T05:38:09.594Z,64.80
2023-11-19T05:39:09.586Z,107.60
2023-11-19T05:40:09.612Z,82.50
2023-11-19T05:41:09.544Z,65.50
2023-11-19T05:42:09.541Z,61.80
2023-11-19T05:43:09.558Z,80.20
2023-11-19T05:44:09.538Z,81.80
2023-11-19T05:45:09.496Z,47.30
2023-11-19T05:46:19.805Z,64.80
2023-11-19T05:47:09.629Z,72.50
2023-11-19T05:48:09.502Z,66.30
2023-11-19T05:49:09.487Z,55.90
2023-11-19T05:50:09.477Z,77.00
2023-11-19T05:51:09.466Z,67.10
2023-11-19T05:52:09.539Z,82.90
2023-11-19T05:53:09.440Z,59.20
2023-11-19T05:54:09.422Z,62.60
2023-11-19T05:55:09.418Z,49.80
2023-11-19T05:56:09.398Z,61.60
2023-11-19T05:57:09.398Z,56.80
2023-11-19T05:58:09.385Z,51.80
2023-11-19T05:59:09.420Z,51.30
2023-11-19T06:00:09.372Z,57.10
2023-11-19T06:01:09.786Z,78.30
2023-11-19T06:02:09.354Z,50.70
2023-11-19T06:03:09.402Z,41.70
2023-11-19T06:04:09.452Z,49.60
2023-11-19T06:05:09.344Z,49.30
2023-11-19T06:06:09.355Z,43.50
2023-11-19T06:07:09.382Z,45.80
2023-11-19T06:08:09.254Z,45.20
2023-11-19T06:10:08.398Z,54.80
2023-11-19T06:11:09.227Z,52.60
2023-11-19T06:12:09.228Z,49.50
2023-11-19T06:13:09.228Z,42.00
2023-11-19T06:14:09.215Z,43.60
2023-11-19T06:15:09.174Z,53.10
2023-11-19T06:16:09.199Z,44.50
2023-11-19T06:17:09.227Z,56.10
2023-11-19T06:18:09.202Z,46.70
2023-11-19T06:19:09.206Z,33.30
2023-11-19T06:20:09.129Z,42.00
2023-11-19T06:21:09.130Z,51.60
2023-11-19T06:22:09.129Z,51.60
2023-11-19T06:23:09.113Z,40.70
2023-11-19T06:24:09.110Z,39.60
2023-11-19T06:25:09.312Z,44.20
2023-11-19T06:26:09.054Z,36.20
2023-11-19T06:27:09.046Z,50.40
2023-11-19T06:28:09.109Z,46.00
2023-11-19T06:29:09.129Z,44.90
2023-11-19T06:30:09.015Z,41.90
2023-11-19T06:31:09.016Z,46.40
2023-11-19T06:33:09.076Z,44.10
2023-11-19T06:34:09.037Z,41.30
2023-11-19T06:35:08.974Z,46.50
2023-11-19T06:36:08.955Z,39.70
2023-11-19T06:37:09.007Z,38.20
2023-11-19T06:38:08.942Z,42.10
2023-11-19T06:39:08.938Z,36.50
2023-11-19T06:40:08.953Z,33.50
2023-11-19T06:41:08.912Z,36.20
2023-11-19T06:42:08.883Z,34.00
2023-11-19T06:43:08.898Z,35.70
2023-11-19T06:44:08.880Z,34.30
2023-11-19T06:45:08.855Z,32.30
2023-11-19T06:46:08.868Z,29.30
2023-11-19T06:47:08.911Z,32.40
2023-11-19T06:48:08.834Z,34.90
2023-11-19T06:49:08.835Z,30.60
2023-11-19T06:50:08.801Z,33.00
2023-11-19T06:51:08.804Z,37.20
2023-11-19T06:52:08.784Z,44.90
2023-11-19T06:53:08.828Z,33.60
2023-11-19T06:54:08.779Z,30.10
2023-11-19T06:55:09.416Z,29.50
2023-11-19T06:56:08.742Z,33.70
2023-11-19T06:57:08.750Z,31.90
2023-11-19T06:58:08.816Z,28.40
2023-11-19T06:59:08.779Z,34.70
2023-11-19T07:00:08.874Z,35.40
2023-11-19T07:01:08.722Z,34.70
2023-11-19T07:02:08.730Z,38.30
2023-11-19T07:03:08.839Z,39.60
2023-11-19T07:04:08.663Z,32.80
2023-11-19T07:05:08.649Z,28.80
2023-11-19T07:06:08.653Z,39.90
2023-11-19T07:07:08.611Z,38.00
2023-11-19T07:08:08.667Z,34.60
2023-11-19T07:09:08.618Z,35.40
2023-11-19T07:10:08.576Z,42.00
2023-11-19T07:11:08.570Z,37.00
2023-11-19T07:12:08.573Z,31.60
2023-11-19T07:13:08.550Z,40.50
2023-11-19T07:14:08.635Z,35.10
2023-11-19T07:15:08.542Z,38.20
2023-11-19T07:16:08.539Z,48.10
2023-11-19T07:17:08.544Z,33.80
2023-11-19T07:18:08.587Z,32.70
2023-11-19T07:19:08.615Z,35.80
2023-11-19T07:20:08.491Z,33.80
2023-11-19T07:21:08.473Z,33.90
2023-11-19T07:22:08.438Z,36.40
2023-11-19T07:23:08.486Z,33.40
2023-11-19T07:24:08.440Z,36.80
2023-11-19T07:25:08.405Z,42.40
2023-11-19T07:26:08.417Z,36.70
2023-11-19T07:27:08.379Z,45.60
2023-11-19T07:28:08.380Z,31.00
2023-11-19T07:29:08.455Z,40.50
2023-11-19T07:30:08.374Z,42.80
2023-11-19T07:31:08.349Z,39.40
2023-11-19T07:32:08.342Z,38.80
2023-11-19T07:33:08.421Z,36.80
2023-11-19T07:34:08.294Z,34.30
2023-11-19T07:35:08.372Z,30.40
2023-11-19T07:36:08.281Z,35.50
2023-11-19T07:37:08.296Z,30.60
2023-11-19T07:38:08.309Z,32.80
2023-11-19T07:39:08.239Z,34.30
2023-11-19T07:40:08.272Z,32.00
2023-11-19T07:41:08.287Z,28.60
2023-11-19T07:42:08.230Z,28.00
2023-11-19T07:43:08.206Z,30.70
2023-11-19T07:44:08.238Z,28.90
2023-11-19T07:45:08.200Z,30.00
2023-11-19T07:46:08.172Z,27.60
2023-11-19T07:47:08.191Z,27.50
2023-11-19T07:48:08.166Z,28.80
2023-11-19T07:49:08.148Z,30.20
2023-11-19T07:50:08.163Z,33.40
2023-11-19T07:51:08.120Z,21.30
2023-11-19T07:52:21.488Z,22.10
2023-11-19T07:53:08.144Z,30.00
2023-11-19T07:54:08.089Z,22.40
2023-11-19T07:55:08.088Z,25.30
2023-11-19T07:56:08.102Z,27.30
2023-11-19T07:57:08.087Z,30.40
2023-11-19T07:58:08.040Z,27.30
2023-11-19T07:59:08.060Z,27.40
2023-11-19T08:00:08.041Z,27.90
2023-11-19T08:01:08.026Z,23.20
2023-11-19T08:02:08.016Z,23.60
2023-11-19T08:03:08.161Z,24.50
2023-11-19T08:04:08.100Z,32.20
2023-11-19T08:05:08.144Z,26.30
2023-11-19T08:06:07.946Z,26.20
2023-11-19T08:07:07.956Z,24.80
2023-11-19T08:08:07.944Z,24.40
2023-11-19T08:09:07.936Z,29.30
2023-11-19T08:10:07.927Z,24.40
2023-11-19T08:11:07.951Z,27.40
2023-11-19T08:12:07.882Z,30.40
2023-11-19T08:13:07.916Z,23.60
2023-11-19T08:14:07.914Z,24.30
2023-11-19T08:15:07.867Z,29.40
2023-11-19T08:16:07.882Z,25.10
2023-11-19T08:17:07.889Z,26.10
2023-11-19T08:18:07.821Z,25.80
2023-11-19T08:19:07.805Z,26.50
2023-11-19T08:20:07.876Z,26.00
2023-11-19T08:21:07.796Z,27.50
2023-11-19T08:22:07.781Z,23.30
2023-11-19T08:23:07.837Z,25.00
2023-11-19T08:24:07.765Z,30.50
2023-11-19T08:25:07.760Z,21.00
2023-11-19T08:26:07.929Z,31.30
2023-11-19T08:27:07.805Z,25.20
2023-11-19T08:28:07.714Z,22.90
2023-11-19T08:29:07.725Z,24.70
2023-11-19T08:30:07.718Z,31.30
2023-11-19T08:31:07.718Z,30.40
2023-11-19T08:32:07.690Z,24.10
2023-11-19T08:33:07.722Z,23.60
2023-11-19T08:34:07.725Z,27.10
2023-11-19T08:35:07.700Z,22.80
2023-11-19T08:36:07.649Z,25.60
2023-11-19T08:37:07.623Z,22.50
2023-11-19T08:38:07.668Z,27.00
2023-11-19T08:39:07.623Z,22.80
2023-11-19T08:40:07.669Z,21.00
2023-11-19T08:41:07.646Z,24.00
2023-11-19T08:42:07.570Z,24.50
2023-11-19T08:43:07.574Z,24.70
2023-11-19T08:44:07.564Z,26.70
2023-11-19T08:45:07.563Z,22.50
2023-11-19T08:46:07.576Z,27.10
2023-11-19T08:47:07.548Z,25.00
2023-11-19T08:48:07.627Z,24.70
2023-11-19T08:49:07.495Z,22.50
2023-11-19T08:50:07.518Z,21.90
2023-11-19T08:51:07.490Z,25.20
2023-11-19T08:52:07.452Z,20.90
2023-11-19T08:53:07.459Z,24.80
2023-11-19T08:54:07.428Z,25.50
2023-11-19T08:55:07.457Z,24.20
2023-11-19T08:56:07.458Z,25.10
2023-11-19T08:57:07.495Z,27.90
2023-11-19T08:58:07.398Z,25.20
2023-11-19T08:59:07.429Z,23.50
2023-11-19T09:00:07.392Z,29.10
2023-11-19T09:01:07.377Z,27.10
2023-11-19T09:02:07.392Z,15.70
2023-11-19T09:03:07.444Z,30.70
2023-11-19T09:04:07.397Z,25.30
2023-11-19T09:05:07.452Z,26.60
2023-11-19T09:06:07.297Z,22.90
2023-11-19T09:07:07.305Z,28.60
2023-11-19T09:08:07.320Z,25.10
2023-11-19T09:09:07.262Z,31.20
2023-11-19T09:10:07.268Z,24.00
2023-11-19T09:11:07.364Z,25.20
2023-11-19T09:12:07.268Z,26.20
2023-11-19T09:13:07.226Z,26.80
2023-11-19T09:14:07.231Z,35.60
2023-11-19T09:15:07.228Z,22.80
2023-11-19T09:16:07.237Z,28.40
2023-11-19T09:17:07.185Z,26.50
2023-11-19T09:18:07.220Z,30.90
2023-11-19T09:19:07.280Z,27.20
2023-11-19T09:20:07.172Z,27.00
2023-11-19T09:21:07.144Z,29.20
2023-11-19T09:22:07.122Z,24.70
2023-11-19T09:23:07.120Z,24.60
2023-11-19T09:24:07.124Z,26.90
2023-11-19T09:25:07.116Z,21.20
2023-11-19T09:26:07.083Z,28.60
2023-11-19T09:27:07.090Z,21.60
2023-11-19T09:28:07.068Z,24.70
2023-11-19T09:29:07.070Z,27.30
2023-11-19T09:30:07.050Z,21.90
2023-11-19T09:31:07.074Z,23.60
2023-11-19T09:32:07.010Z,26.60
2023-11-19T09:33:07.136Z,27.20
2023-11-19T09:34:07.050Z,30.00
2023-11-19T09:35:07.005Z,31.60
2023-11-19T09:36:06.976Z,22.30
2023-11-19T09:37:21.801Z,22.60
2023-11-19T09:38:06.962Z,31.10
2023-11-19T09:39:06.945Z,26.80
2023-11-19T09:40:06.940Z,25.40
2023-11-19T09:41:06.913Z,25.20
2023-11-19T09:42:06.892Z,26.10
2023-11-19T09:43:06.915Z,30.60
2023-11-19T09:44:06.876Z,24.00
2023-11-19T09:45:06.902Z,23.70
2023-11-19T09:46:06.900Z,25.10
2023-11-19T09:47:06.842Z,27.00
2023-11-19T09:48:06.971Z,35.50
2023-11-19T09:49:06.829Z,24.70
2023-11-19T09:50:06.834Z,27.00
2023-11-19T09:51:06.834Z,24.60
2023-11-19T09:52:06.797Z,31.80
2023-11-19T09:53:06.792Z,32.60
2023-11-19T09:54:06.791Z,28.60
2023-11-19T09:55:06.770Z,28.80
2023-11-19T09:56:06.770Z,25.70
2023-11-19T09:57:06.741Z,25.20
2023-11-19T09:58:06.741Z,23.30
2023-11-19T09:59:06.719Z,23.00
2023-11-19T10:00:06.741Z,30.80
2023-11-19T10:02:06.383Z,25.40
2023-11-19T10:03:06.889Z,27.10
2023-11-19T10:04:06.801Z,31.20
2023-11-19T10:05:06.670Z,25.30
2023-11-19T10:06:06.655Z,24.40
2023-11-19T10:07:06.632Z,24.60
2023-11-19T10:08:06.618Z,23.30
2023-11-19T10:09:06.611Z,21.30
2023-11-19T10:10:06.617Z,24.10
2023-11-19T10:11:06.587Z,22.70
2023-11-19T10:12:06.581Z,20.70
2023-11-19T10:13:06.584Z,25.70
2023-11-19T10:14:06.550Z,24.10
2023-11-19T10:15:06.561Z,25.40
2023-11-19T10:16:06.559Z,32.50
2023-11-19T10:17:06.530Z,25.20
2023-11-19T10:18:06.723Z,23.50
2023-11-19T10:19:06.496Z,24.30
2023-11-19T10:20:06.523Z,24.50
2023-11-19T10:21:06.473Z,25.20
2023-11-19T10:22:06.474Z,23.40
2023-11-19T10:23:06.463Z,20.20
2023-11-19T10:24:07.181Z,28.70
2023-11-19T10:25:06.455Z,20.70
2023-11-19T10:26:06.448Z,27.30
2023-11-19T10:27:06.421Z,26.30
2023-11-19T10:28:06.393Z,24.40
2023-11-19T10:29:06.385Z,26.80
2023-11-19T10:30:09.353Z,27.50
2023-11-19T10:31:06.365Z,24.20
2023-11-19T10:32:24.375Z,19.70
2023-11-19T10:33:06.424Z,24.60
2023-11-19T10:34:06.369Z,25.20
2023-11-19T10:35:06.352Z,27.30
2023-11-19T10:36:06.334Z,30.50
2023-11-19T10:37:06.305Z,32.50
2023-11-19T10:38:06.289Z,21.90
2023-11-19T10:39:06.282Z,24.00
2023-11-19T10:40:06.494Z,24.00
2023-11-19T10:41:06.281Z,30.40
2023-11-19T10:42:06.258Z,24.60
2023-11-19T10:43:06.244Z,26.40
2023-11-19T10:44:06.256Z,24.80
2023-11-19T10:45:06.257Z,27.40
2023-11-19T10:46:06.230Z,26.90
2023-11-19T10:47:06.210Z,27.10
2023-11-19T10:48:06.220Z,29.40
2023-11-19T10:49:06.171Z,21.90
2023-11-19T10:50:06.184Z,28.70
2023-11-19T10:51:06.147Z,19.60
2023-11-19T10:52:06.157Z,26.30
2023-11-19T10:53:06.139Z,26.50
2023-11-19T10:54:06.158Z,20.90
2023-11-19T10:55:06.168Z,26.20
2023-11-19T10:56:06.114Z,23.30
2023-11-19T10:57:06.099Z,23.80
2023-11-19T10:58:06.071Z,30.80
2023-11-19T11:00:06.090Z,22.50
2023-11-19T11:01:06.088Z,29.50
2023-11-19T11:02:06.029Z,22.10
2023-11-19T11:03:06.087Z,23.50
2023-11-19T11:04:06.042Z,23.90
2023-11-19T11:05:06.025Z,24.00
2023-11-19T11:06:05.995Z,18.80
2023-11-19T11:07:05.983Z,19.20
2023-11-19T11:08:05.969Z,28.40
2023-11-19T11:09:05.970Z,25.10
2023-11-19T11:10:06.004Z,25.20
2023-11-19T11:11:05.964Z,21.10
2023-11-19T11:12:05.919Z,22.20
2023-11-19T11:13:05.906Z,27.10
2023-11-19T11:14:05.909Z,25.40
2023-11-19T11:15:05.911Z,24.30
2023-11-19T11:16:05.978Z,25.30
2023-11-19T11:17:05.935Z,22.20
2023-11-19T11:18:05.905Z,24.00
2023-11-19T11:19:05.906Z,27.00
2023-11-19T11:20:05.866Z,23.00
2023-11-19T11:21:05.827Z,26.10
2023-11-19T11:22:05.826Z,24.80
2023-11-19T11:23:05.845Z,25.60
2023-11-19T11:24:05.797Z,22.70
2023-11-19T11:25:05.812Z,21.10
2023-11-19T11:26:05.773Z,24.70
2023-11-19T11:27:05.761Z,28.40
2023-11-19T11:28:05.744Z,30.30
2023-11-19T11:29:05.753Z,19.40
2023-11-19T11:30:05.757Z,35.70
2023-11-19T11:31:05.708Z,20.40
2023-11-19T11:32:05.706Z,25.90
2023-11-19T11:33:05.696Z,23.60
2023-11-19T11:34:05.712Z,25.90
2023-11-19T11:35:05.701Z,23.90
2023-11-19T11:36:05.653Z,20.90
2023-11-19T11:37:05.658Z,26.80
2023-11-19T11:38:05.660Z,21.00
2023-11-19T11:39:05.634Z,22.30
2023-11-19T11:40:05.642Z,24.70
2023-11-19T11:41:05.609Z,23.20
2023-11-19T11:42:05.615Z,26.90
2023-11-19T11:43:05.656Z,25.70
2023-11-19T11:44:05.572Z,25.40
2023-11-19T11:45:06.103Z,17.40
2023-11-19T11:46:05.633Z,23.30
2023-11-19T11:47:05.583Z,31.70
2023-11-19T11:48:05.578Z,23.20
2023-11-19T11:49:05.533Z,23.10
2023-11-19T11:50:05.520Z,19.40
2023-11-19T11:51:05.504Z,24.80
2023-11-19T11:52:05.602Z,23.10
2023-11-19T11:53:05.486Z,23.40
2023-11-19T11:54:05.467Z,25.00
2023-11-19T11:55:05.532Z,20.80
2023-11-19T11:56:05.459Z,20.50
2023-11-19T11:58:04.433Z,19.80
2023-11-19T11:59:05.410Z,19.80
2023-11-19T12:00:05.417Z,22.40
2023-11-19T12:01:05.412Z,18.20
2023-11-19T12:02:05.377Z,20.50
2023-11-19T12:03:05.433Z,22.00
2023-11-19T12:04:05.468Z,16.70
2023-11-19T12:05:05.421Z,21.90
2023-11-19T12:06:05.377Z,26.50
2023-11-19T12:07:05.325Z,22.70
2023-11-19T12:08:05.308Z,23.50
2023-11-19T12:09:05.317Z,18.00
2023-11-19T12:10:05.320Z,27.80
2023-11-19T12:11:05.287Z,24.60
2023-11-19T12:12:05.284Z,18.50
2023-11-19T12:13:05.296Z,22.10
2023-11-19T12:14:05.240Z,23.70
2023-11-19T12:15:05.259Z,19.60
2023-11-19T12:16:05.245Z,15.10
2023-11-19T12:17:05.235Z,21.00
2023-11-19T12:18:05.219Z,24.60
2023-11-19T12:19:05.221Z,19.10
2023-11-19T12:20:05.230Z,22.00
2023-11-19T12:21:05.172Z,24.60
2023-11-19T12:22:05.194Z,20.40
2023-11-19T12:23:06.960Z,18.60
2023-11-19T12:24:05.182Z,18.50
2023-11-19T12:25:05.164Z,17.50
2023-11-19T12:26:05.118Z,19.50
2023-11-19T12:27:05.101Z,20.40
2023-11-19T12:28:05.134Z,22.40
2023-11-19T12:29:08.404Z,18.00
2023-11-19T12:30:05.113Z,20.00
2023-11-19T12:31:05.132Z,26.10
2023-11-19T12:33:05.233Z,22.00
2023-11-19T12:34:05.022Z,21.80
2023-11-19T12:35:05.023Z,16.90
2023-11-19T12:36:05.013Z,16.30
2023-11-19T12:37:05.025Z,20.30
2023-11-19T12:38:05.001Z,19.80
2023-11-19T12:39:04.973Z,17.30
2023-11-19T12:40:07.267Z,24.40
2023-11-19T12:41:04.978Z,19.80
2023-11-19T12:42:04.959Z,22.60
2023-11-19T12:43:05.015Z,27.10
2023-11-19T12:44:04.940Z,20.30
2023-11-19T12:45:04.904Z,15.90
2023-11-19T12:46:06.584Z,22.20
2023-11-19T12:47:04.967Z,22.00
2023-11-19T12:48:04.948Z,20.90
2023-11-19T12:49:04.906Z,22.70
2023-11-19T12:50:04.854Z,21.10
2023-11-19T12:51:04.872Z,22.50
2023-11-19T12:52:04.879Z,23.00
2023-11-19T12:53:04.832Z,20.60
2023-11-19T12:54:04.800Z,24.00
2023-11-19T12:55:04.844Z,23.30
2023-11-19T12:56:04.800Z,21.80
2023-11-19T12:57:04.772Z,26.30
2023-11-19T12:58:04.794Z,20.00
2023-11-19T12:59:04.758Z,19.00
2023-11-19T13:00:04.742Z,18.70
2023-11-19T13:01:04.862Z,27.40
2023-11-19T13:02:04.733Z,24.00
2023-11-19T13:03:04.726Z,21.40
2023-11-19T13:04:04.729Z,19.90
2023-11-19T13:05:05.606Z,21.50
2023-11-19T13:06:04.693Z,22.30
2023-11-19T13:07:05.375Z,17.80
2023-11-19T13:08:04.651Z,24.80